Time;durP1;ratioP1;P1;durP2;ratioP2;P2;SDS_P1;SDS_P2;PMS_P1;PMS_P2;Temp;Humidity;BMP_temperature;BMP_pressure;BME280_temperature;BME280_humidity;BME280_pressure;Samples;Min_cycle;Max_cycle;Signal;HPM_P1;HPM_P2
2021/04/28 00:01:13;;;;;;;;;;;;;;;12.66;72.48;100127.78;4888604;29;19918;-81
2021/04/28 00:03:59;;;;;;;;;;;;;;;12.72;72.17;100129.16;4906208;29;20392;-82
2021/04/28 00:06:45;;;;;;;;;;;;;;;12.75;72.02;100120.25;4914836;29;19919;-82
2021/04/28 00:09:30;;;;;;;;;;;;;;;12.69;71.95;100118.13;4951583;23;19922;-82
2021/04/28 00:12:15;;;;;;;;;;;;;;;12.50;72.67;100115.97;4949867;28;19919;-81
2021/04/28 00:14:59;;;;;;;;;;;;;;;12.46;72.75;100109.63;4956233;28;19914;-82
2021/04/28 00:17:45;;;;;;;;;;;;;;;12.45;72.77;100116.22;4951531;28;19914;-81
2021/04/28 00:20:37;;;;;;;;;;;;;;;12.42;73.24;100111.47;4925608;29;19914;-83
2021/04/28 00:23:22;;;;;;;;;;;;;;;12.44;73.36;100114.66;4930472;29;20379;-83
2021/04/28 00:26:07;;;;;;;;;;;;;;;12.36;73.55;100113.63;4930241;29;19919;-82
2021/04/28 00:28:51;;;;;;;;;;;;;;;12.54;73.04;100108.72;4930946;29;19915;-82
2021/04/28 00:31:36;;;;;;;;;;;;;;;12.64;72.54;100116.44;4936673;28;19918;-81
2021/04/28 00:34:21;;;;;;;;;;;;;;;12.58;72.59;100119.75;4921484;29;19919;-82
2021/04/28 00:37:06;;;;;;;;;;;;;;;12.56;72.88;100117.34;4932617;29;19914;-81
2021/04/28 00:39:50;;;;;;;;;;;;;;;12.66;72.83;100105.97;4918037;29;19918;-81
2021/04/28 00:42:35;;;;;;;;;;;;;;;12.74;72.52;100105.06;4929686;29;19922;-82
2021/04/28 00:45:20;;;;;;;;;;;;;;;12.79;72.55;100098.56;4920121;28;19914;-81
2021/04/28 00:48:06;;;;;;;;;;;;;;;12.71;72.85;100103.00;4923697;28;19914;-82
2021/04/28 00:50:54;;;;;;;;;;;;;;;12.64;73.22;100097.34;4915747;29;19915;-81
2021/04/28 00:53:40;;;;;;;;;;;;;;;12.62;73.60;100099.63;4934210;29;19918;-82
2021/04/28 00:56:25;;;;;;;;;;;;;;;12.60;73.85;100096.41;4927339;28;19914;-81
2021/04/28 00:59:12;;;;;;;;;;;;;;;12.53;73.95;100098.94;4934820;28;19914;-83
2021/04/28 01:01:57;;;;;;;;;;;;;;;12.52;73.91;100096.56;4919975;28;19915;-83
2021/04/28 01:04:45;;;;;;;;;;;;;;;12.63;73.13;100098.47;4933345;28;19923;-83
2021/04/28 01:07:30;;;;;;;;;;;;;;;12.69;73.03;100094.38;4938790;29;19915;-82
2021/04/28 01:10:19;;;;;;;;;;;;;;;12.76;72.63;100094.56;4932928;29;19914;-82
2021/04/28 01:13:04;;;;;;;;;;;;;;;12.76;72.39;100088.31;4926629;29;19918;-83
2021/04/28 01:15:50;;;;;;;;;;;;;;;12.78;72.23;100086.06;4928972;28;19914;-82
2021/04/28 01:18:36;;;;;;;;;;;;;;;12.78;72.14;100080.59;4937291;28;19914;-83
2021/04/28 01:21:20;;;;;;;;;;;;;;;12.71;72.48;100081.19;4932642;28;19914;-83
2021/04/28 01:24:06;;;;;;;;;;;;;;;12.78;71.89;100081.41;4918118;29;20299;-82
2021/04/28 01:26:53;;;;;;;;;;;;;;;12.78;72.49;100086.84;4936809;28;19914;-82
2021/04/28 01:29:38;;;;;;;;;;;;;;;12.70;72.07;100074.13;4928823;29;19914;-82
2021/04/28 01:32:23;;;;;;;;;;;;;;;12.79;72.00;100074.00;4912535;28;19923;-82
2021/04/28 01:35:10;;;;;;;;;;;;;;;12.73;72.08;100072.66;4910941;28;20322;-83
2021/04/28 01:37:57;;;;;;;;;;;;;;;12.75;72.12;100065.69;4943285;28;19923;-82
2021/04/28 01:40:42;;;;;;;;;;;;;;;12.72;72.09;100068.34;4928058;29;19914;-82
2021/04/28 01:43:27;;;;;;;;;;;;;;;12.70;72.21;100067.88;4924659;29;19915;-82
2021/04/28 01:46:13;;;;;;;;;;;;;;;12.72;71.93;100063.66;4938901;28;19915;-82
2021/04/28 01:48:59;;;;;;;;;;;;;;;12.77;71.42;100062.63;4923930;28;19948;-82
2021/04/28 01:51:44;;;;;;;;;;;;;;;12.65;70.25;100060.72;4923591;29;20306;-82
2021/04/28 01:54:29;;;;;;;;;;;;;;;12.51;70.97;100060.31;4917931;29;20391;-82
2021/04/28 01:57:17;;;;;;;;;;;;;;;12.53;68.81;100058.03;4930931;29;19914;-83
2021/04/28 02:00:18;;;;;;;;;;;;;;;12.40;68.64;100053.72;4921555;29;19914;-83
2021/04/28 02:03:06;;;;;;;;;;;;;;;12.42;68.63;100051.47;4932166;29;19915;-82
2021/04/28 02:05:52;;;;;;;;;;;;;;;12.50;67.71;100055.97;4931953;28;19914;-82
2021/04/28 02:08:38;;;;;;;;;;;;;;;12.44;66.67;100054.66;4933520;29;19914;-84
2021/04/28 02:11:23;;;;;;;;;;;;;;;12.37;67.27;100046.25;4917698;28;19918;-82
2021/04/28 02:14:12;;;;;;;;;;;;;;;12.49;65.93;100046.25;4940069;29;19918;-82
2021/04/28 02:17:19;;;;;;;;;;;;;;;12.29;65.63;100037.03;4911931;29;19914;-83
2021/04/28 02:20:13;;;;;;;;;;;;;;;12.39;65.22;100044.00;4920574;29;19938;-83
2021/04/28 02:23:05;;;;;;;;;;;;;;;12.43;65.17;100037.50;4941258;28;20303;-83
2021/04/28 02:25:53;;;;;;;;;;;;;;;12.52;65.19;100036.56;4919827;29;20387;-83
2021/04/28 02:28:37;;;;;;;;;;;;;;;12.53;65.89;100030.78;4914473;29;19915;-84
2021/04/28 02:31:23;;;;;;;;;;;;;;;12.59;66.06;100034.06;4932041;28;19919;-82
2021/04/28 02:34:15;;;;;;;;;;;;;;;12.57;67.11;100019.97;4931308;29;19919;-83
2021/04/28 02:37:18;;;;;;;;;;;;;;;12.55;67.33;100024.94;4910832;29;20302;-84
2021/04/28 02:40:21;;;;;;;;;;;;;;;12.57;67.15;100020.75;4935778;29;19923;-83
2021/04/28 02:43:09;;;;;;;;;;;;;;;12.47;65.75;100018.50;4917808;29;20376;-83
2021/04/28 02:45:55;;;;;;;;;;;;;;;12.38;66.66;100020.59;4917432;29;19915;-82
2021/04/28 02:48:42;;;;;;;;;;;;;;;12.37;66.19;100017.06;4926566;29;19919;-82
2021/04/28 02:51:46;;;;;;;;;;;;;;;12.11;66.61;100011.19;4933090;29;19915;-81
2021/04/28 02:54:54;;;;;;;;;;;;;;;11.92;66.44;100017.22;4941412;28;20387;-83
2021/04/28 02:57:45;;;;;;;;;;;;;;;12.22;66.20;100012.31;4929188;29;19916;-85
2021/04/28 03:00:31;;;;;;;;;;;;;;;12.32;65.81;100008.31;4903162;29;20371;-85
2021/04/28 03:03:17;;;;;;;;;;;;;;;12.40;66.51;100007.38;4920524;29;20307;-85
2021/04/28 03:06:13;;;;;;;;;;;;;;;12.40;66.40;99999.19;4914087;29;19915;-85
2021/04/28 03:09:17;;;;;;;;;;;;;;;12.20;67.66;100002.88;4911532;29;19923;-84
2021/04/28 03:12:02;;;;;;;;;;;;;;;12.21;68.36;99997.09;4912781;29;19997;-84
2021/04/28 03:14:55;;;;;;;;;;;;;;;12.22;68.88;99989.72;4902386;29;19918;-84
2021/04/28 03:17:41;;;;;;;;;;;;;;;12.15;69.36;99997.66;4918440;29;19923;-85
2021/04/28 03:20:32;;;;;;;;;;;;;;;12.02;70.51;99993.38;4907520;29;19914;-85
2021/04/28 03:23:17;;;;;;;;;;;;;;;12.01;70.53;99989.84;4909431;29;19923;-84
2021/04/28 03:26:02;;;;;;;;;;;;;;;12.07;70.01;99990.41;4926115;29;19915;-84
2021/04/28 03:28:49;;;;;;;;;;;;;;;12.20;69.15;99995.50;4921698;29;20391;-85
2021/04/28 03:31:34;;;;;;;;;;;;;;;12.33;68.09;99993.56;4922394;29;19918;-85
2021/04/28 03:34:19;;;;;;;;;;;;;;;12.32;68.45;99997.41;4906472;29;19919;-81
2021/04/28 03:37:04;;;;;;;;;;;;;;;11.99;69.81;99995.63;4923634;29;19919;-82
2021/04/28 03:39:58;;;;;;;;;;;;;;;12.05;69.83;99993.47;4921296;29;19915;-85
2021/04/28 03:42:43;;;;;;;;;;;;;;;12.03;70.18;99998.50;4931784;29;19918;-85
2021/04/28 03:45:28;;;;;;;;;;;;;;;12.11;69.54;99997.56;4920264;29;19914;-85
2021/04/28 03:48:15;;;;;;;;;;;;;;;12.09;69.51;100002.53;4923474;29;19935;-84
2021/04/28 03:51:00;;;;;;;;;;;;;;;12.09;69.78;100007.22;4906428;29;20379;-84
2021/04/28 03:53:45;;;;;;;;;;;;;;;11.95;70.64;100013.00;4922596;29;19918;-84
2021/04/28 03:56:30;;;;;;;;;;;;;;;12.00;71.16;100015.50;4916911;29;20391;-85
2021/04/28 03:59:16;;;;;;;;;;;;;;;12.07;69.73;100012.22;4918341;29;20379;-84
2021/04/28 04:02:02;;;;;;;;;;;;;;;12.10;68.92;100016.97;4923793;29;19914;-84
2021/04/28 04:05:01;;;;;;;;;;;;;;;12.11;68.53;100010.38;4912782;29;19915;-85
2021/04/28 04:08:14;;;;;;;;;;;;;;;11.99;69.73;100024.81;4943226;28;19922;-85
2021/04/28 04:11:06;;;;;;;;;;;;;;;11.90;70.12;100024.13;4921928;29;19915;-84
2021/04/28 04:13:52;;;;;;;;;;;;;;;11.82;70.56;100027.78;4922311;29;20299;-84
2021/04/28 04:16:37;;;;;;;;;;;;;;;11.84;70.03;100026.28;4912833;29;19923;-83
2021/04/28 04:19:21;;;;;;;;;;;;;;;11.85;70.56;100027.09;4930580;29;19914;-84
2021/04/28 04:22:19;;;;;;;;;;;;;;;11.67;70.45;100037.38;4922886;29;20322;-85
2021/04/28 04:25:27;;;;;;;;;;;;;;;11.64;70.22;100034.53;4929466;29;19915;-84
2021/04/28 04:28:12;;;;;;;;;;;;;;;11.66;69.86;100040.44;4923443;29;19914;-85
2021/04/28 04:31:18;;;;;;;;;;;;;;;11.67;70.69;100042.84;4928104;29;19915;-84
2021/04/28 04:34:21;;;;;;;;;;;;;;;11.64;70.79;100042.69;4933745;29;19919;-84
2021/04/28 04:37:25;;;;;;;;;;;;;;;11.55;70.51;100056.41;4925747;29;19914;-84
2021/04/28 04:40:26;;;;;;;;;;;;;;;11.49;70.51;100055.03;4929124;29;19915;-84
2021/04/28 04:43:23;;;;;;;;;;;;;;;11.47;70.90;100051.88;4919457;29;19919;-82
2021/04/28 04:46:32;;;;;;;;;;;;;;;11.46;70.21;100061.16;4916867;29;19914;-84
2021/04/28 04:49:16;;;;;;;;;;;;;;;11.39;70.12;100066.34;4921574;29;19915;-85
2021/04/28 04:52:01;;;;;;;;;;;;;;;11.39;69.84;100066.34;4935767;29;19923;-83
2021/04/28 04:54:45;;;;;;;;;;;;;;;11.33;69.49;100071.22;4913352;29;19918;-80
2021/04/28 04:57:29;;;;;;;;;;;;;;;11.39;69.79;100077.25;4920387;29;19914;-84
2021/04/28 05:00:15;;;;;;;;;;;;;;;11.49;69.00;100071.38;4924408;29;19915;-82
2021/04/28 05:03:02;;;;;;;;;;;;;;;11.35;69.79;100073.59;4925684;29;19914;-84
2021/04/28 05:05:46;;;;;;;;;;;;;;;11.34;69.59;100072.00;4927861;29;19915;-84
2021/04/28 05:08:31;;;;;;;;;;;;;;;11.41;69.32;100080.44;4912614;29;19914;-83
2021/04/28 05:11:15;;;;;;;;;;;;;;;11.39;69.15;100085.41;4923138;29;19915;-83
2021/04/28 05:14:02;;;;;;;;;;;;;;;11.49;68.88;100084.97;4909532;29;20299;-85
2021/04/28 05:16:47;;;;;;;;;;;;;;;11.64;68.25;100083.53;4918815;29;19914;-84
2021/04/28 05:19:32;;;;;;;;;;;;;;;11.80;66.98;100082.59;4922916;29;19914;-86
2021/04/28 05:22:22;;;;;;;;;;;;;;;11.91;66.74;100080.22;4933027;29;19915;-88
2021/04/28 05:25:27;;;;;;;;;;;;;;;12.08;66.27;100074.56;4920123;29;19914;-81
2021/04/28 05:28:11;;;;;;;;;;;;;;;12.19;65.22;100075.66;4937281;29;19923;-86
2021/04/28 05:30:55;;;;;;;;;;;;;;;12.40;65.58;100073.63;4923070;29;20291;-87
2021/04/28 05:33:40;;;;;;;;;;;;;;;12.67;63.62;100074.03;4912990;29;19919;-86
2021/04/28 05:36:25;;;;;;;;;;;;;;;12.83;63.09;100081.16;4928466;29;19915;-84
2021/04/28 05:39:09;;;;;;;;;;;;;;;13.09;61.79;100079.94;4919124;29;19930;-85
2021/04/28 05:41:54;;;;;;;;;;;;;;;13.12;61.98;100073.78;4924998;29;19919;-86
2021/04/28 05:44:38;;;;;;;;;;;;;;;13.25;60.36;100078.06;4934605;29;19914;-85
2021/04/28 05:47:23;;;;;;;;;;;;;;;13.21;58.31;100077.16;4921612;29;20296;-86
2021/04/28 05:50:10;;;;;;;;;;;;;;;13.49;58.31;100074.41;4922365;29;19918;-84
2021/04/28 05:52:55;;;;;;;;;;;;;;;13.60;57.66;100079.03;4913099;29;19915;-86
2021/04/28 05:55:40;;;;;;;;;;;;;;;13.68;57.58;100080.78;4912364;29;19914;-85
2021/04/28 05:58:25;;;;;;;;;;;;;;;13.38;58.88;100074.13;4927865;29;19915;-86
2021/04/28 06:01:10;;;;;;;;;;;;;;;13.09;59.49;100072.53;4934857;29;20295;-86
2021/04/28 06:03:54;;;;;;;;;;;;;;;13.28;59.59;100072.69;4932754;29;19918;-84
2021/04/28 06:06:38;;;;;;;;;;;;;;;13.21;57.28;100075.22;4932070;29;19915;-85
2021/04/28 06:12:41;;;;;;;;;;;;;;;13.40;57.16;100069.13;4973901;28;20303;-77
2021/04/28 06:15:26;;;;;;;;;;;;;;;13.68;56.52;100072.59;4980709;28;20386;-77
2021/04/28 06:18:11;;;;;;;;;;;;;;;13.77;56.06;100071.63;4981803;28;19914;-77
2021/04/28 06:20:55;;;;;;;;;;;;;;;13.85;55.59;100068.72;4983122;28;20298;-77
2021/04/28 06:23:40;;;;;;;;;;;;;;;13.84;55.58;100075.34;4984976;28;20301;-76
2021/04/28 06:26:25;;;;;;;;;;;;;;;13.93;55.64;100066.94;4980030;28;19914;-77
2021/04/28 06:29:09;;;;;;;;;;;;;;;13.71;57.12;100069.13;4971276;28;19914;-77
2021/04/28 06:31:57;;;;;;;;;;;;;;;13.93;57.00;100066.94;4983132;28;19914;-76
2021/04/28 06:34:41;;;;;;;;;;;;;;;13.71;55.87;100074.59;4969009;28;19914;-77
2021/04/28 06:37:27;;;;;;;;;;;;;;;13.82;55.92;100071.34;4980663;28;20295;-77
2021/04/28 06:40:12;;;;;;;;;;;;;;;14.02;55.12;100076.56;4981667;28;19914;-77
2021/04/28 06:42:57;;;;;;;;;;;;;;;14.17;54.76;100072.22;4969709;28;19921;-77
2021/04/28 06:45:43;;;;;;;;;;;;;;;14.04;55.07;100076.22;4973716;28;19913;-77
2021/04/28 06:48:27;;;;;;;;;;;;;;;14.51;53.88;100078.91;4984975;28;19917;-77
2021/04/28 06:51:12;;;;;;;;;;;;;;;14.55;53.45;100077.03;4981724;28;19914;-77
2021/04/28 06:54:01;;;;;;;;;;;;;;;15.21;51.62;100079.59;4982899;28;19918;-77
2021/04/28 06:56:46;;;;;;;;;;;;;;;15.49;50.36;100081.31;4980019;28;19918;-77
2021/04/28 06:59:31;;;;;;;;;;;;;;;15.66;49.74;100078.91;4981701;28;19914;-77
2021/04/28 07:02:15;;;;;;;;;;;;;;;15.59;49.83;100078.78;4986767;28;19914;-77
2021/04/28 07:05:00;;;;;;;;;;;;;;;15.45;49.70;100073.00;4986663;28;19913;-78
2021/04/28 07:07:44;;;;;;;;;;;;;;;15.82;49.24;100070.56;4984710;28;19914;-77
2021/04/28 07:10:29;;;;;;;;;;;;;;;16.48;47.54;100069.25;4985052;28;19914;-77
2021/04/28 07:13:13;;;;;;;;;;;;;;;16.67;47.53;100072.69;4985271;28;19914;-77
2021/04/28 07:15:57;;;;;;;;;;;;;;;17.13;45.95;100077.97;4982743;28;20147;-77
2021/04/28 07:18:42;;;;;;;;;;;;;;;17.67;44.25;100071.94;4975676;28;19918;-77
2021/04/28 07:21:27;;;;;;;;;;;;;;;18.02;44.16;100073.41;4980577;28;19914;-77
2021/04/28 07:24:11;;;;;;;;;;;;;;;18.00;43.68;100076.53;4980996;28;19914;-77
2021/04/28 07:26:56;;;;;;;;;;;;;;;18.07;43.63;100068.34;4983470;28;19914;-78
2021/04/28 07:29:41;;;;;;;;;;;;;;;17.94;43.52;100072.53;4974738;28;19913;-77
2021/04/28 07:32:26;;;;;;;;;;;;;;;18.85;41.29;100074.34;4984726;28;19914;-77
2021/04/28 07:35:12;;;;;;;;;;;;;;;20.92;37.16;100076.91;4981414;28;20370;-77
2021/04/28 07:37:58;;;;;;;;;;;;;;;21.76;35.30;100074.91;4986466;28;19926;-77
2021/04/28 07:40:42;;;;;;;;;;;;;;;22.49;34.37;100080.25;4973066;28;19913;-77
2021/04/28 07:43:26;;;;;;;;;;;;;;;21.93;33.93;100079.53;4983922;28;19913;-77
2021/04/28 07:46:11;;;;;;;;;;;;;;;21.98;34.60;100075.56;4984737;28;19914;-78
2021/04/28 07:48:57;;;;;;;;;;;;;;;23.11;33.02;100074.38;4986684;28;19914;-77
2021/04/28 07:51:41;;;;;;;;;;;;;;;23.44;32.75;100075.56;4986263;28;19913;-77
2021/04/28 07:54:27;;;;;;;;;;;;;;;23.19;32.83;100077.88;4991446;28;20277;-78
2021/04/28 07:57:12;;;;;;;;;;;;;;;23.71;32.19;100075.59;4974512;28;20317;-78
2021/04/28 07:59:57;;;;;;;;;;;;;;;22.78;34.27;100073.22;4972218;28;19913;-78
2021/04/28 08:02:42;;;;;;;;;;;;;;;24.41;31.74;100087.53;4985174;28;19914;-78
2021/04/28 08:05:27;;;;;;;;;;;;;;;26.48;28.02;100081.84;4965016;28;20443;-79
2021/04/28 08:08:11;;;;;;;;;;;;;;;27.61;25.99;100079.41;4982284;28;19914;-77
2021/04/28 08:10:56;;;;;;;;;;;;;;;27.78;24.81;100084.88;4978566;28;20374;-78
2021/04/28 08:13:40;;;;;;;;;;;;;;;26.33;27.89;100087.78;4977268;28;19914;-78
2021/04/28 08:16:25;;;;;;;;;;;;;;;28.41;25.34;100098.75;4978574;28;19918;-77
2021/04/28 08:19:09;;;;;;;;;;;;;;;28.80;24.28;100095.41;4976980;28;19914;-77
2021/04/28 08:21:54;;;;;;;;;;;;;;;27.84;25.10;100097.81;4979325;28;19914;-77
2021/04/28 08:24:39;;;;;;;;;;;;;;;26.02;27.63;100097.72;4977729;28;19914;-76
2021/04/28 08:27:24;;;;;;;;;;;;;;;29.35;23.86;100111.84;4975484;28;20302;-78
2021/04/28 08:30:10;;;;;;;;;;;;;;;26.21;27.23;100096.81;4979206;28;19914;-76
2021/04/28 08:32:55;;;;;;;;;;;;;;;27.88;24.98;100104.09;4977357;28;19914;-77
2021/04/28 08:35:41;;;;;;;;;;;;;;;26.34;27.00;100106.09;4975139;28;19914;-77
2021/04/28 08:38:25;;;;;;;;;;;;;;;27.35;25.93;100113.31;4975933;28;19918;-78
2021/04/28 08:41:11;;;;;;;;;;;;;;;27.75;25.66;100120.06;4976665;28;19914;-78
2021/04/28 08:43:57;;;;;;;;;;;;;;;24.53;30.07;100119.53;4974587;28;19914;-78
2021/04/28 08:46:42;;;;;;;;;;;;;;;27.00;26.55;100118.69;4979217;28;19929;-77
2021/04/28 08:49:27;;;;;;;;;;;;;;;26.61;26.40;100118.97;4963464;28;20290;-78
2021/04/28 08:52:13;;;;;;;;;;;;;;;28.46;24.39;100121.34;4975126;28;19914;-78
2021/04/28 08:54:58;;;;;;;;;;;;;;;26.72;27.18;100113.84;4980047;28;19918;-74
2021/04/28 08:57:42;;;;;;;;;;;;;;;23.83;31.63;100114.66;4975833;28;19922;-73
2021/04/28 09:00:27;;;;;;;;;;;;;;;21.80;35.75;100108.88;4975291;28;19914;-73
2021/04/28 09:03:12;;;;;;;;;;;;;;;20.87;37.43;100104.97;4965838;28;19914;-73
2021/04/28 09:05:57;;;;;;;;;;;;;;;19.72;40.36;100108.16;4976928;28;19918;-73
2021/04/28 09:08:51;;;;;;;;;;;;;;;22.76;34.92;100108.88;4975111;28;19914;-73
2021/04/28 09:11:38;;;;;;;;;;;;;;;24.47;31.37;100113.66;4975277;28;19914;-74
2021/04/28 09:14:24;;;;;;;;;;;;;;;26.03;28.42;100110.44;4960637;28;19914;-74
2021/04/28 09:17:09;;;;;;;;;;;;;;;26.34;27.89;100106.09;4974946;28;19918;-74
2021/04/28 09:20:13;;;;;;;;;;;;;;;28.67;24.30;100107.84;4975193;28;20466;-74
2021/04/28 09:23:34;;;;;;;;;;;;;;;32.08;19.74;100118.38;4975217;28;19913;-74
2021/04/28 09:26:37;;;;;;;;;;;;;;;31.36;19.99;100111.75;4974886;28;19914;-74
2021/04/28 09:29:32;;;;;;;;;;;;;;;31.59;19.70;100115.16;4974936;28;19914;-74
2021/04/28 09:32:16;;;;;;;;;;;;;;;28.57;23.89;100097.81;4973813;28;19914;-74
2021/04/28 09:35:15;;;;;;;;;;;;;;;33.25;17.97;100114.38;4977010;28;19914;-75
2021/04/28 09:38:00;;;;;;;;;;;;;;;29.42;21.95;100106.72;4975321;28;19918;-75
2021/04/28 09:40:46;;;;;;;;;;;;;;;26.07;27.07;100102.75;4974596;28;19914;-74
2021/04/28 09:43:37;;;;;;;;;;;;;;;25.70;26.76;100106.06;4976215;28;19913;-74
2021/04/28 09:46:21;;;;;;;;;;;;;;;22.07;32.87;100095.25;4975218;28;19914;-74
2021/04/28 09:49:06;;;;;;;;;;;;;;;23.03;31.70;100090.34;4970918;28;19914;-84
2021/04/28 09:52:02;;;;;;;;;;;;;;;21.98;34.18;100092.16;4980493;28;19914;-85
2021/04/28 09:54:48;;;;;;;;;;;;;;;21.68;34.13;100085.25;4976504;28;19914;-84
2021/04/28 09:57:34;;;;;;;;;;;;;;;21.21;34.07;100089.47;4975475;28;19918;-84
2021/04/28 10:00:20;;;;;;;;;;;;;;;21.08;35.04;100093.03;4964112;28;19917;-85
2021/04/28 10:03:07;;;;;;;;;;;;;;;20.80;35.86;100088.41;4966479;28;20378;-85
2021/04/28 10:05:52;;;;;;;;;;;;;;;20.47;36.26;100087.66;4980837;28;20378;-84
2021/04/28 10:08:36;;;;;;;;;;;;;;;20.55;36.72;100093.97;4967343;28;19914;-84
2021/04/28 10:11:23;;;;;;;;;;;;;;;20.39;35.62;100093.59;4975879;28;19914;-85
2021/04/28 10:14:08;;;;;;;;;;;;;;;20.31;37.03;100084.56;4980595;28;20298;-85
2021/04/28 10:16:54;;;;;;;;;;;;;;;20.20;37.98;100080.19;4980533;28;19918;-84
2021/04/28 10:19:39;;;;;;;;;;;;;;;20.23;37.37;100087.66;4966268;28;19913;-85
2021/04/28 10:22:25;;;;;;;;;;;;;;;20.30;36.74;100085.72;4976014;28;20378;-82
2021/04/28 10:25:10;;;;;;;;;;;;;;;20.09;36.68;100077.44;4974964;28;20298;-81
2021/04/28 10:27:55;;;;;;;;;;;;;;;19.85;36.81;100067.97;4960563;28;19914;-81
2021/04/28 10:30:41;;;;;;;;;;;;;;;19.93;37.38;100074.28;4966940;28;19915;-81
2021/04/28 10:33:28;;;;;;;;;;;;;;;19.80;38.86;100079.41;4956473;29;19914;-83
2021/04/28 10:36:13;;;;;;;;;;;;;;;19.91;37.10;100076.66;4942357;29;19914;-80
2021/04/28 10:38:58;;;;;;;;;;;;;;;20.11;36.12;100075.06;4958686;28;20298;-81
2021/04/28 10:41:44;;;;;;;;;;;;;;;20.18;36.63;100071.50;4927684;29;19926;-81
2021/04/28 10:44:40;;;;;;;;;;;;;;;20.33;35.34;100065.59;4940515;29;19918;-81
2021/04/28 10:47:35;;;;;;;;;;;;;;;20.42;36.34;100065.19;4958817;28;19922;-81
2021/04/28 10:50:35;;;;;;;;;;;;;;;20.35;36.18;100057.72;4943184;29;19915;-81
2021/04/28 10:53:28;;;;;;;;;;;;;;;19.98;36.79;100062.84;4945894;28;20378;-81
2021/04/28 10:56:14;;;;;;;;;;;;;;;20.17;38.10;100067.94;4940298;29;19914;-81
2021/04/28 10:58:58;;;;;;;;;;;;;;;20.21;38.01;100057.72;4961514;28;20330;-82
2021/04/28 11:01:43;;;;;;;;;;;;;;;20.18;37.33;100057.69;4941475;29;19922;-82
2021/04/28 11:04:28;;;;;;;;;;;;;;;20.41;35.67;100056.13;4956726;29;20294;-83
2021/04/28 11:07:15;;;;;;;;;;;;;;;20.44;35.88;100044.28;4943732;29;19914;-81
2021/04/28 11:10:18;;;;;;;;;;;;;;;20.51;35.96;100048.22;4954617;28;19918;-82
2021/04/28 11:13:05;;;;;;;;;;;;;;;20.75;36.36;100047.34;4946292;29;20298;-83
2021/04/28 11:15:52;;;;;;;;;;;;;;;20.79;36.06;100043.38;4960001;29;19914;-83
2021/04/28 11:18:37;;;;;;;;;;;;;;;20.81;33.85;100037.47;4972316;28;20306;-83
2021/04/28 11:21:27;;;;;;;;;;;;;;;20.80;35.80;100046.94;4959421;28;19914;-83
2021/04/28 11:24:13;;;;;;;;;;;;;;;20.93;35.41;100042.53;4985453;28;19914;-83
2021/04/28 11:26:59;;;;;;;;;;;;;;;21.06;34.09;100043.66;4990826;28;19918;-81
2021/04/28 11:29:56;;;;;;;;;;;;;;;21.10;34.96;100047.19;4989941;28;19914;-82
2021/04/28 11:32:40;;;;;;;;;;;;;;;21.19;35.57;100044.81;4981313;28;19914;-81
2021/04/28 11:35:25;;;;;;;;;;;;;;;21.05;35.14;100036.56;4961260;28;19914;-83
2021/04/28 11:38:12;;;;;;;;;;;;;;;21.12;35.44;100031.00;4978348;28;19929;-82
2021/04/28 11:41:03;;;;;;;;;;;;;;;21.02;35.09;100028.28;4984792;28;19913;-81
2021/04/28 11:43:53;;;;;;;;;;;;;;;20.88;34.68;100029.91;4989273;28;19914;-82
2021/04/28 11:46:38;;;;;;;;;;;;;;;20.98;34.37;100033.81;4983766;28;20374;-82
2021/04/28 11:49:23;;;;;;;;;;;;;;;21.09;33.65;100040.09;4986645;28;19913;-82
2021/04/28 11:52:07;;;;;;;;;;;;;;;20.94;35.93;100027.53;4975658;28;19922;-82
2021/04/28 11:54:57;;;;;;;;;;;;;;;21.09;34.67;100031.78;4988099;28;20302;-82
2021/04/28 11:57:42;;;;;;;;;;;;;;;21.15;34.54;100033.00;4969947;28;20381;-81
2021/04/28 12:00:31;;;;;;;;;;;;;;;20.88;36.57;100021.63;4975952;28;19914;-82
2021/04/28 12:03:16;;;;;;;;;;;;;;;21.06;34.63;100021.56;4983536;28;19914;-83
2021/04/28 12:06:20;;;;;;;;;;;;;;;20.71;37.12;100021.72;4989425;28;19914;-82
2021/04/28 12:09:08;;;;;;;;;;;;;;;20.66;36.22;100031.22;4982430;28;19914;-82
2021/04/28 12:12:25;;;;;;;;;;;;;;;20.82;33.65;100026.03;5038111;23;19929;-80
2021/04/28 12:15:14;;;;;;;;;;;;;;;21.04;33.28;100028.66;5001224;28;19917;-81
2021/04/28 12:17:59;;;;;;;;;;;;;;;21.00;32.90;100025.13;5015714;28;19917;-80
2021/04/28 12:20:45;;;;;;;;;;;;;;;21.00;32.26;100022.38;5033603;28;19921;-80
2021/04/28 12:23:29;;;;;;;;;;;;;;;21.06;33.44;100020.75;5008918;28;20305;-81
2021/04/28 12:26:14;;;;;;;;;;;;;;;21.18;32.48;100015.56;5020154;28;20305;-81
2021/04/28 12:28:58;;;;;;;;;;;;;;;20.82;33.10;100025.22;5017629;28;19913;-80
2021/04/28 12:31:44;;;;;;;;;;;;;;;20.92;33.73;100024.41;5019597;28;19913;-80
2021/04/28 12:34:29;;;;;;;;;;;;;;;21.07;34.30;100022.34;5017285;28;19917;-81
2021/04/28 12:37:21;;;;;;;;;;;;;;;20.97;34.43;100012.13;5027274;28;19917;-81
2021/04/28 12:40:10;;;;;;;;;;;;;;;20.99;34.59;100016.06;5037354;28;19913;-81
2021/04/28 12:42:54;;;;;;;;;;;;;;;21.00;34.20;100016.84;5014830;28;19913;-81
2021/04/28 12:45:40;;;;;;;;;;;;;;;21.21;32.90;100014.78;5006778;28;19913;-81
2021/04/28 12:48:24;;;;;;;;;;;;;;;21.26;33.41;100019.91;5009334;28;19913;-82
2021/04/28 12:51:14;;;;;;;;;;;;;;;21.11;33.18;100009.28;5027874;28;19913;-81
2021/04/28 12:53:59;;;;;;;;;;;;;;;21.05;34.05;99999.84;5019476;28;20105;-81
2021/04/28 12:56:45;;;;;;;;;;;;;;;20.89;34.19;100006.63;5019648;28;20300;-82
2021/04/28 12:59:30;;;;;;;;;;;;;;;21.04;34.30;99996.28;5022488;28;19917;-82
2021/04/28 13:02:18;;;;;;;;;;;;;;;21.00;33.52;99998.28;5018043;28;19913;-82
2021/04/28 13:05:03;;;;;;;;;;;;;;;21.11;33.23;99992.69;5014525;28;19913;-81
2021/04/28 13:07:48;;;;;;;;;;;;;;;21.10;33.71;99985.59;5023252;28;19972;-81
2021/04/28 13:10:33;;;;;;;;;;;;;;;21.18;34.01;99987.16;5014371;28;19913;-81
2021/04/28 13:13:32;;;;;;;;;;;;;;;21.07;33.33;99989.97;5005096;28;19913;-80
2021/04/28 13:16:27;;;;;;;;;;;;;;;21.05;33.29;99995.09;5011036;28;19917;-81
2021/04/28 13:19:11;;;;;;;;;;;;;;;21.13;33.24;99980.03;5030557;28;19940;-79
2021/04/28 13:22:01;;;;;;;;;;;;;;;21.18;33.52;99990.69;5013594;28;19913;-80
2021/04/28 13:24:50;;;;;;;;;;;;;;;21.01;35.03;99979.72;5040162;28;19913;-80
2021/04/28 13:27:34;;;;;;;;;;;;;;;20.93;34.75;99981.72;5031354;28;19913;-80
2021/04/28 13:30:19;;;;;;;;;;;;;;;21.23;34.21;99979.19;5011996;28;19914;-80
2021/04/28 13:33:04;;;;;;;;;;;;;;;21.37;33.00;99977.53;5025706;28;19920;-81
2021/04/28 13:35:49;;;;;;;;;;;;;;;21.26;32.33;99972.88;5024695;28;19917;-81
2021/04/28 13:38:51;;;;;;;;;;;;;;;21.34;32.88;99970.84;5021727;28;19913;-81
2021/04/28 13:41:37;;;;;;;;;;;;;;;21.12;32.84;99978.47;5027916;28;19913;-80
2021/04/28 13:44:23;;;;;;;;;;;;;;;21.02;32.87;99967.47;5010208;28;19913;-81
2021/04/28 13:47:08;;;;;;;;;;;;;;;21.05;34.23;99961.91;4995634;28;19913;-81
2021/04/28 13:49:53;;;;;;;;;;;;;;;21.20;32.73;99965.41;5007322;28;19914;-81
2021/04/28 13:52:38;;;;;;;;;;;;;;;21.22;32.65;99958.28;5005761;28;19913;-81
2021/04/28 13:55:22;;;;;;;;;;;;;;;21.09;33.18;99959.91;5009940;28;19925;-81
2021/04/28 13:58:07;;;;;;;;;;;;;;;21.25;32.28;99962.22;5015109;28;19913;-81
2021/04/28 14:00:53;;;;;;;;;;;;;;;21.22;32.71;99955.53;5009950;28;19913;-81
2021/04/28 14:03:37;;;;;;;;;;;;;;;21.05;32.74;99955.59;5005356;28;19913;-82
2021/04/28 14:06:23;;;;;;;;;;;;;;;20.90;33.37;99954.91;4996976;28;19913;-81
2021/04/28 14:09:09;;;;;;;;;;;;;;;20.63;34.75;99962.91;4991368;28;20290;-81
2021/04/28 14:11:53;;;;;;;;;;;;;;;20.63;34.07;99962.91;4986036;28;19913;-81
2021/04/28 14:14:38;;;;;;;;;;;;;;;20.63;33.85;99967.66;4988026;28;20102;-81
2021/04/28 14:17:22;;;;;;;;;;;;;;;20.44;35.57;99961.41;4985995;28;20397;-82
2021/04/28 14:20:07;;;;;;;;;;;;;;;20.36;36.23;99964.63;4990609;28;19914;-81
2021/04/28 14:22:52;;;;;;;;;;;;;;;20.34;35.68;99961.44;4988627;28;19914;-82
2021/04/28 14:25:36;;;;;;;;;;;;;;;20.54;35.50;99961.78;5005106;28;19914;-81